Terminal Aerodrome Forecast
Issued by NWS

Current Version | Previous Version | Text Only | Print | Product List | Glossary Off
Versions: 1 2 3 4 5 6 7 8 9 10 11 12 13 14 15 16 17 18 19 20 21 22 23 24 25

000
FTUS41 KILN 162000 AAA
TAFLCK
TAF AMD
KLCK 162003Z 1620/1718 25014G24KT 5SM -SHRA BR OVC014
     FM162300 26014G24KT P6SM OVC012
     FM170000 26014G24KT P6SM OVC008
     FM170800 27012G20KT P6SM OVC015=

USA.gov is the U.S. government's official web portal to all federal, state and local government web resources and services.